createdAt,value
2022-12-19T00:01:33.629Z,57.57
2022-12-19T00:04:38.221Z,57.15
2022-12-19T00:07:42.979Z,57.51
2022-12-19T00:10:57.672Z,56.26
2022-12-19T00:14:02.378Z,56.25
2022-12-19T00:17:06.762Z,55.61
2022-12-19T00:20:11.921Z,55.93
2022-12-19T00:23:19.085Z,55.26
2022-12-19T00:26:28.882Z,55.51
2022-12-19T00:29:33.598Z,54.97
2022-12-19T00:32:38.613Z,56.47
2022-12-19T00:35:43.133Z,56.15
2022-12-19T00:38:49.311Z,55.35
2022-12-19T00:41:53.733Z,55.28
2022-12-19T00:44:59.769Z,55.25
2022-12-19T00:48:04.108Z,55.87
2022-12-19T00:51:20.033Z,56.10
2022-12-19T00:54:24.980Z,56.41
2022-12-19T00:57:30.189Z,56.49
2022-12-19T01:00:34.615Z,56.84
2022-12-19T01:03:39.205Z,56.02
2022-12-19T01:06:43.722Z,53.54
2022-12-19T01:09:49.704Z,53.74
2022-12-19T01:12:55.663Z,53.63
2022-12-19T01:16:08.861Z,52.89
2022-12-19T01:19:13.170Z,53.22
2022-12-19T01:22:17.748Z,52.86
2022-12-19T01:25:23.682Z,53.59
2022-12-19T01:28:28.434Z,53.21
2022-12-19T01:31:34.086Z,52.30
2022-12-19T01:34:40.214Z,51.60
2022-12-19T01:37:44.657Z,52.45
2022-12-19T01:40:55.252Z,51.75
2022-12-19T01:44:02.566Z,51.37
2022-12-19T01:47:15.555Z,51.35
2022-12-19T01:50:57.297Z,51.67
2022-12-19T01:54:09.934Z,53.09
2022-12-19T01:57:17.619Z,52.28
2022-12-19T02:00:22.800Z,51.74
2022-12-19T02:03:33.555Z,51.22
2022-12-19T02:06:40.426Z,51.46
2022-12-19T02:09:50.572Z,51.58
2022-12-19T02:13:10.023Z,51.10
2022-12-19T02:16:34.884Z,48.97
2022-12-19T02:20:08.795Z,48.60
2022-12-19T02:23:50.606Z,48.91
2022-12-19T02:27:25.229Z,50.17
2022-12-19T02:30:38.821Z,51.02
2022-12-19T02:33:49.235Z,49.01
2022-12-19T02:37:11.846Z,49.14
2022-12-19T02:40:34.961Z,48.25
2022-12-19T02:43:46.136Z,50.86
2022-12-19T02:46:54.569Z,49.74
2022-12-19T02:50:04.071Z,50.69
2022-12-19T02:53:12.003Z,49.96
2022-12-19T02:56:16.600Z,50.10
2022-12-19T02:59:53.783Z,52.29
2022-12-19T03:03:06.217Z,51.38
2022-12-19T03:06:27.469Z,51.80
2022-12-19T03:09:35.079Z,50.75
2022-12-19T03:12:55.115Z,52.30
2022-12-19T03:16:02.807Z,50.09
2022-12-19T03:19:11.909Z,51.42
2022-12-19T03:22:16.558Z,51.00
2022-12-19T03:25:24.102Z,48.28
2022-12-19T03:28:37.960Z,50.11
2022-12-19T03:31:44.327Z,50.90
2022-12-19T03:35:18.233Z,50.90
2022-12-19T03:38:24.381Z,50.43
2022-12-19T03:41:47.487Z,50.86
2022-12-19T03:44:54.572Z,49.72
2022-12-19T03:48:05.137Z,50.98
2022-12-19T03:51:31.319Z,50.88
2022-12-19T03:54:43.357Z,50.58
2022-12-19T03:58:07.010Z,50.75
2022-12-19T04:01:12.066Z,49.09
2022-12-19T04:04:18.133Z,48.85
2022-12-19T04:07:23.905Z,49.22
2022-12-19T04:10:30.239Z,51.77
2022-12-19T04:13:40.074Z,49.54
2022-12-19T04:16:56.892Z,51.18
2022-12-19T04:20:08.692Z,48.92
2022-12-19T04:23:26.479Z,49.72
2022-12-19T04:26:32.782Z,51.45
2022-12-19T04:29:39.893Z,50.44
2022-12-19T04:32:47.331Z,49.82
2022-12-19T04:35:52.263Z,49.98
2022-12-19T04:38:56.597Z,48.56
2022-12-19T04:42:01.395Z,49.21
2022-12-19T04:45:07.197Z,48.34
2022-12-19T04:48:12.060Z,46.91
2022-12-19T04:51:17.506Z,47.42
2022-12-19T04:54:21.628Z,49.11
2022-12-19T04:57:26.231Z,48.07
2022-12-19T05:00:30.654Z,48.72
2022-12-19T05:03:36.045Z,48.95
2022-12-19T05:06:40.288Z,49.55
2022-12-19T05:09:45.060Z,49.49
2022-12-19T05:12:49.383Z,50.58
2022-12-19T05:16:01.246Z,51.11
2022-12-19T05:19:05.885Z,50.70
2022-12-19T05:22:10.338Z,48.99
2022-12-19T05:25:14.857Z,49.31
2022-12-19T05:28:20.064Z,49.51
2022-12-19T05:31:24.667Z,50.71
2022-12-19T05:34:29.154Z,50.49
2022-12-19T05:37:34.243Z,49.22
2022-12-19T05:40:38.879Z,50.71
2022-12-19T05:43:50.558Z,50.66
2022-12-19T05:46:55.188Z,51.71
2022-12-19T05:49:59.580Z,50.84
2022-12-19T05:53:04.163Z,48.30
2022-12-19T05:56:16.631Z,50.06
2022-12-19T05:59:21.092Z,49.31
2022-12-19T06:02:26.149Z,50.97
2022-12-19T06:05:33.258Z,51.10
2022-12-19T06:08:37.841Z,49.35
2022-12-19T06:11:43.342Z,50.37
2022-12-19T06:14:47.934Z,49.46
2022-12-19T06:17:57.620Z,49.72
2022-12-19T06:21:05.415Z,50.39
2022-12-19T06:24:10.044Z,49.28
2022-12-19T06:27:14.662Z,49.31
2022-12-19T06:30:21.730Z,49.21
2022-12-19T06:33:27.031Z,49.09
2022-12-19T06:36:32.047Z,49.98
2022-12-19T06:39:36.896Z,49.95
2022-12-19T06:42:41.520Z,50.18
2022-12-19T06:45:45.938Z,50.58
2022-12-19T06:48:50.735Z,50.97
2022-12-19T06:51:55.202Z,51.35
2022-12-19T06:54:59.761Z,50.54
2022-12-19T06:58:04.531Z,50.47
2022-12-19T07:01:09.529Z,51.48
2022-12-19T07:04:17.412Z,51.76
2022-12-19T07:07:22.182Z,52.10
2022-12-19T07:10:29.393Z,51.85
2022-12-19T07:13:35.101Z,51.49
2022-12-19T07:16:39.980Z,52.27
2022-12-19T07:19:45.964Z,52.38
2022-12-19T07:22:50.857Z,52.74
2022-12-19T07:25:55.852Z,51.96
2022-12-19T07:29:01.601Z,52.28
2022-12-19T07:32:06.128Z,52.87
2022-12-19T07:35:11.442Z,53.08
2022-12-19T07:38:15.898Z,52.30
2022-12-19T07:41:20.342Z,52.41
2022-12-19T07:44:24.679Z,52.55
2022-12-19T07:47:29.453Z,53.87
2022-12-19T07:50:34.491Z,53.08
2022-12-19T07:53:39.223Z,53.77
2022-12-19T07:56:44.062Z,53.12
2022-12-19T07:59:48.716Z,53.05
2022-12-19T08:02:53.632Z,52.90
2022-12-19T08:06:03.025Z,53.71
2022-12-19T08:09:07.770Z,53.38
2022-12-19T08:12:12.100Z,52.40
2022-12-19T08:15:16.897Z,52.84
2022-12-19T08:18:21.330Z,54.05
2022-12-19T08:21:26.259Z,53.37
2022-12-19T08:24:31.737Z,53.09
2022-12-19T08:27:36.447Z,52.37
2022-12-19T08:30:42.301Z,53.15
2022-12-19T08:33:48.391Z,55.58
2022-12-19T08:36:52.902Z,55.92
2022-12-19T08:39:57.263Z,54.04
2022-12-19T08:43:01.907Z,53.25
2022-12-19T08:46:07.713Z,55.53
2022-12-19T08:49:12.265Z,56.17
2022-12-19T08:52:18.852Z,57.64
2022-12-19T08:55:23.245Z,56.29
2022-12-19T08:58:29.617Z,55.61
2022-12-19T09:01:34.301Z,54.93
2022-12-19T09:05:50.861Z,54.72
2022-12-19T09:08:03.527Z,53.97
2022-12-19T09:11:17.264Z,54.32
2022-12-19T09:14:22.778Z,55.37
2022-12-19T09:17:27.262Z,56.26
2022-12-19T09:20:32.091Z,55.13
2022-12-19T09:23:37.394Z,55.05
2022-12-19T09:26:43.057Z,54.50
2022-12-19T09:29:47.878Z,53.51
2022-12-19T09:32:52.584Z,54.82
2022-12-19T09:35:58.056Z,56.05
2022-12-19T09:39:02.839Z,56.71
2022-12-19T09:42:25.464Z,56.65
2022-12-19T09:45:39.871Z,55.21
2022-12-19T09:48:52.496Z,54.01
2022-12-19T09:52:26.989Z,55.00
2022-12-19T09:55:40.892Z,55.00
2022-12-19T09:59:03.263Z,56.25
2022-12-19T10:02:26.042Z,57.16
2022-12-19T10:07:07.740Z,57.26
2022-12-19T10:11:06.461Z,56.76
2022-12-19T10:13:34.470Z,56.46
2022-12-19T10:17:23.050Z,57.10
2022-12-19T10:20:28.501Z,58.01
2022-12-19T10:23:57.665Z,57.35
2022-12-19T10:27:07.963Z,57.32
2022-12-19T10:30:21.935Z,56.87
2022-12-19T10:33:36.552Z,56.17
2022-12-19T10:40:28.437Z,56.50
2022-12-19T10:43:56.592Z,56.97
2022-12-19T10:47:01.378Z,57.29
2022-12-19T10:50:15.786Z,56.55
2022-12-19T10:53:29.929Z,56.60
2022-12-19T10:56:37.693Z,56.06
2022-12-19T11:00:02.537Z,55.82
2022-12-19T11:03:18.998Z,55.17
2022-12-19T11:06:36.303Z,55.20
2022-12-19T11:09:49.619Z,55.24
2022-12-19T11:18:57.068Z,56.41
2022-12-19T11:23:40.995Z,57.93
2022-12-19T11:29:47.127Z,58.03
2022-12-19T11:29:54.222Z,57.23
2022-12-19T11:30:41.131Z,57.98
2022-12-19T11:34:52.413Z,58.20
2022-12-19T11:38:01.582Z,57.79
2022-12-19T11:41:40.150Z,57.35
2022-12-19T11:45:17.410Z,56.11
2022-12-19T11:48:26.071Z,56.56
2022-12-19T11:51:36.287Z,56.17
2022-12-19T11:55:06.948Z,56.65
2022-12-19T11:58:12.758Z,56.24
2022-12-19T12:01:26.188Z,55.97
2022-12-19T12:05:14.461Z,56.51
2022-12-19T12:12:39.388Z,56.48
2022-12-19T12:20:29.559Z,56.94
2022-12-19T12:25:57.835Z,58.93
2022-12-19T12:31:06.910Z,58.26
2022-12-19T12:31:44.721Z,58.38
2022-12-19T12:31:49.684Z,57.90
2022-12-19T12:38:40.021Z,55.80
2022-12-19T12:42:18.345Z,56.28
2022-12-19T12:45:37.441Z,55.95
2022-12-19T12:49:09.393Z,56.57
2022-12-19T12:52:38.113Z,56.78
2022-12-19T12:55:44.249Z,56.29
2022-12-19T12:58:50.107Z,57.92
2022-12-19T13:02:14.741Z,56.49
2022-12-19T13:05:39.659Z,56.63
2022-12-19T13:08:49.025Z,56.11
2022-12-19T13:12:23.714Z,56.67
2022-12-19T13:15:28.277Z,56.87
2022-12-19T13:18:38.673Z,57.19
2022-12-19T13:22:08.826Z,57.25
2022-12-19T13:25:37.495Z,57.59
2022-12-19T13:28:43.611Z,58.79
2022-12-19T13:32:11.673Z,58.65
2022-12-19T13:37:32.422Z,57.81
2022-12-19T13:40:01.315Z,57.21
2022-12-19T13:42:46.482Z,56.25
2022-12-19T13:45:58.645Z,55.58
2022-12-19T13:49:35.161Z,55.80
2022-12-19T13:52:40.719Z,56.40
2022-12-19T13:55:45.478Z,56.46
2022-12-19T13:58:51.808Z,55.89
2022-12-19T14:01:57.506Z,57.59
2022-12-19T14:05:02.915Z,57.71
2022-12-19T14:08:09.138Z,58.72
2022-12-19T14:11:45.230Z,59.03
2022-12-19T14:15:13.081Z,58.12
2022-12-19T14:18:42.473Z,56.85
2022-12-19T14:22:10.740Z,57.11
2022-12-19T14:27:57.495Z,57.56
2022-12-19T14:28:54.541Z,57.41
2022-12-19T14:33:41.968Z,57.01
2022-12-19T14:36:10.646Z,56.25
2022-12-19T14:39:22.943Z,56.56
2022-12-19T14:43:57.212Z,56.26
2022-12-19T14:53:08.569Z,56.05
2022-12-19T14:54:11.035Z,56.90
2022-12-19T14:54:29.754Z,56.88
2022-12-19T14:56:59.928Z,56.69
2022-12-19T15:01:08.310Z,57.68
2022-12-19T15:04:52.576Z,57.75
2022-12-19T15:07:34.863Z,58.24
2022-12-19T15:11:02.548Z,58.37
2022-12-19T15:14:54.059Z,58.47
2022-12-19T15:17:30.801Z,57.85
2022-12-19T15:20:34.865Z,56.61
2022-12-19T15:23:39.736Z,57.15
2022-12-19T15:26:55.628Z,56.59
2022-12-19T15:30:00.400Z,55.85
2022-12-19T15:33:06.403Z,55.84
2022-12-19T15:36:11.581Z,56.09
2022-12-19T15:39:16.339Z,56.07
2022-12-19T15:42:26.101Z,55.42
2022-12-19T15:45:32.991Z,54.87
2022-12-19T15:48:41.744Z,55.69
2022-12-19T15:51:47.062Z,55.65
2022-12-19T15:54:51.762Z,55.91
2022-12-19T15:58:06.743Z,56.36
2022-12-19T16:01:13.426Z,56.53
2022-12-19T16:04:18.781Z,56.17
2022-12-19T16:07:26.341Z,55.83
2022-12-19T16:10:31.074Z,56.93
2022-12-19T16:13:36.559Z,56.31
2022-12-19T16:16:41.651Z,55.81
2022-12-19T16:19:46.095Z,56.13
2022-12-19T16:22:51.163Z,56.19
2022-12-19T16:25:56.469Z,56.13
2022-12-19T16:29:01.387Z,55.89
2022-12-19T16:32:06.737Z,56.89
2022-12-19T16:35:40.403Z,55.81
2022-12-19T16:38:47.774Z,56.49
2022-12-19T16:41:52.789Z,57.72
2022-12-19T16:44:57.628Z,58.49
2022-12-19T16:48:02.352Z,57.54
2022-12-19T16:51:07.596Z,57.65
2022-12-19T16:54:14.057Z,58.48
2022-12-19T16:57:22.850Z,58.54
2022-12-19T17:00:27.384Z,57.45
2022-12-19T17:03:42.401Z,57.66
2022-12-19T17:06:47.138Z,57.87
2022-12-19T17:09:51.572Z,56.92
2022-12-19T17:12:56.775Z,56.46
2022-12-19T17:16:01.412Z,56.51
2022-12-19T17:19:06.131Z,56.11
2022-12-19T17:22:16.181Z,55.68
2022-12-19T17:25:24.626Z,55.70
2022-12-19T17:28:30.490Z,56.07
2022-12-19T17:31:38.974Z,55.74
2022-12-19T17:34:44.514Z,55.16
2022-12-19T17:37:57.071Z,55.21
2022-12-19T17:41:01.406Z,55.70
2022-12-19T17:44:06.238Z,55.49
2022-12-19T17:47:19.841Z,55.47
2022-12-19T17:50:27.747Z,56.46
2022-12-19T17:53:32.341Z,57.93
2022-12-19T17:56:36.794Z,58.54
2022-12-19T17:59:42.852Z,57.94
2022-12-19T18:02:49.495Z,57.38
2022-12-19T18:05:56.019Z,57.07
2022-12-19T18:09:03.468Z,56.19
2022-12-19T18:12:08.072Z,56.65
2022-12-19T18:15:12.879Z,56.38
2022-12-19T18:18:23.972Z,54.72
2022-12-19T18:21:28.405Z,55.49
2022-12-19T18:24:32.430Z,54.51
2022-12-19T18:27:37.856Z,54.65
2022-12-19T18:30:44.221Z,54.55
2022-12-19T18:33:49.871Z,54.93
2022-12-19T18:36:54.987Z,55.76
2022-12-19T18:39:59.464Z,56.06
2022-12-19T18:43:03.508Z,55.64
2022-12-19T18:46:08.573Z,55.65
2022-12-19T18:49:17.677Z,55.30
2022-12-19T18:52:21.988Z,56.48
2022-12-19T18:55:27.578Z,56.68
2022-12-19T18:58:32.158Z,56.51
2022-12-19T19:01:48.234Z,57.14
2022-12-19T19:04:53.014Z,56.66
2022-12-19T19:07:58.876Z,55.78
2022-12-19T19:11:03.920Z,55.55
2022-12-19T19:14:08.558Z,55.59
2022-12-19T19:17:29.490Z,54.26
2022-12-19T19:20:40.589Z,54.25
2022-12-19T19:23:50.393Z,54.77
2022-12-19T19:26:55.048Z,54.43
2022-12-19T19:29:59.594Z,54.57
2022-12-19T19:33:17.494Z,54.78
2022-12-19T19:36:28.932Z,55.17
2022-12-19T19:39:35.365Z,55.28
2022-12-19T19:42:39.921Z,56.28
2022-12-19T19:45:44.663Z,56.20
2022-12-19T19:48:49.133Z,55.60
2022-12-19T19:51:58.659Z,55.61
2022-12-19T19:55:08.429Z,55.51
2022-12-19T19:58:12.871Z,55.06
2022-12-19T20:01:17.555Z,55.18
2022-12-19T20:04:22.253Z,54.77
2022-12-19T20:07:26.819Z,54.51
2022-12-19T20:10:31.240Z,53.90
2022-12-19T20:13:35.774Z,53.88
2022-12-19T20:16:40.183Z,53.67
2022-12-19T20:19:44.531Z,53.55
2022-12-19T20:22:48.948Z,53.19
2022-12-19T20:25:53.331Z,53.60
2022-12-19T20:28:57.368Z,54.32
2022-12-19T20:32:02.072Z,53.73
2022-12-19T20:35:12.361Z,54.08
2022-12-19T20:38:18.936Z,54.52
2022-12-19T20:41:23.752Z,55.19
2022-12-19T20:44:28.260Z,55.22
2022-12-19T20:47:32.759Z,54.73
2022-12-19T20:50:42.708Z,54.68
2022-12-19T20:53:48.610Z,54.09
2022-12-19T20:56:53.211Z,54.59
2022-12-19T20:59:58.012Z,54.51
2022-12-19T21:03:28.036Z,55.04
2022-12-19T21:06:28.258Z,55.45
2022-12-19T21:09:32.686Z,54.78
2022-12-19T21:12:37.395Z,55.02
2022-12-19T21:15:44.583Z,54.67
2022-12-19T21:18:49.844Z,54.62
2022-12-19T21:21:54.236Z,54.59
2022-12-19T21:24:58.290Z,53.56
2022-12-19T21:28:02.666Z,53.79
2022-12-19T21:31:19.746Z,54.19
2022-12-19T21:34:24.552Z,54.13
2022-12-19T21:37:29.065Z,54.49
2022-12-19T21:40:32.862Z,54.33
2022-12-19T21:43:38.223Z,53.67
2022-12-19T21:46:42.660Z,54.04
2022-12-19T21:49:46.500Z,54.26
2022-12-19T21:52:55.740Z,54.83
2022-12-19T21:56:05.526Z,54.99
2022-12-19T21:59:15.775Z,55.21
2022-12-19T22:02:20.285Z,54.57
2022-12-19T22:05:24.898Z,54.18
2022-12-19T22:08:29.745Z,54.89
2022-12-19T22:11:34.287Z,55.65
2022-12-19T22:14:38.684Z,55.57
2022-12-19T22:17:44.609Z,55.78
2022-12-19T22:20:49.141Z,55.69
2022-12-19T22:23:54.093Z,55.59
2022-12-19T22:27:01.701Z,55.03
2022-12-19T22:30:10.872Z,54.51
2022-12-19T22:33:15.909Z,54.11
2022-12-19T22:36:27.626Z,54.66
2022-12-19T22:39:33.184Z,54.17
2022-12-19T22:42:37.823Z,54.17
2022-12-19T22:45:42.869Z,54.64
2022-12-19T22:48:48.894Z,55.79
2022-12-19T22:51:53.464Z,56.95
2022-12-19T22:54:58.064Z,57.08
2022-12-19T22:58:02.540Z,57.04
2022-12-19T23:01:17.425Z,56.72
2022-12-19T23:04:22.193Z,55.93
2022-12-19T23:07:26.971Z,55.10
2022-12-19T23:10:31.779Z,55.15
2022-12-19T23:13:36.830Z,54.04
2022-12-19T23:16:41.886Z,54.79
2022-12-19T23:19:46.493Z,54.58
2022-12-19T23:22:50.826Z,54.21
2022-12-19T23:25:55.868Z,54.82
2022-12-19T23:29:11.919Z,54.80
2022-12-19T23:32:16.333Z,54.21
2022-12-19T23:35:20.632Z,54.88
2022-12-19T23:38:24.835Z,55.75
2022-12-19T23:41:29.420Z,55.54
2022-12-19T23:44:34.095Z,56.90
2022-12-19T23:47:38.943Z,57.22
2022-12-19T23:50:43.701Z,57.16
2022-12-19T23:53:48.787Z,55.76
2022-12-19T23:56:54.364Z,55.81
2022-12-19T23:59:58.879Z,57.01
